sensor_id;sensor_type;location;lat;lon;timestamp;temperature;humidity
11122;DHT22;5615;49.304;10.576;2023-04-15T00:01:21;5.40;99.90
11122;DHT22;5615;49.304;10.576;2023-04-15T00:03:50;5.30;99.90
11122;DHT22;5615;49.304;10.576;2023-04-15T00:06:19;5.30;99.90
11122;DHT22;5615;49.304;10.576;2023-04-15T00:08:46;5.20;99.90
11122;DHT22;5615;49.304;10.576;2023-04-15T00:11:13;5.20;99.90
11122;DHT22;5615;49.304;10.576;2023-04-15T00:13:40;5.20;99.90
11122;DHT22;5615;49.304;10.576;2023-04-15T00:16:08;5.20;99.90
11122;DHT22;5615;49.304;10.576;2023-04-15T00:18:35;5.20;99.90
11122;DHT22;5615;49.304;10.576;2023-04-15T00:21:02;5.20;99.90
11122;DHT22;5615;49.304;10.576;2023-04-15T00:23:30;5.20;99.90
11122;DHT22;5615;49.304;10.576;2023-04-15T00:25:56;5.20;99.90
11122;DHT22;5615;49.304;10.576;2023-04-15T00:28:23;5.20;99.90
11122;DHT22;5615;49.304;10.576;2023-04-15T00:30:50;5.10;99.90
11122;DHT22;5615;49.304;10.576;2023-04-15T00:33:17;5.20;99.90
11122;DHT22;5615;49.304;10.576;2023-04-15T00:35:43;5.20;99.90
11122;DHT22;5615;49.304;10.576;2023-04-15T00:38:10;5.20;99.90
11122;DHT22;5615;49.304;10.576;2023-04-15T00:40:38;5.20;99.90
11122;DHT22;5615;49.304;10.576;2023-04-15T00:43:05;5.10;99.90
11122;DHT22;5615;49.304;10.576;2023-04-15T00:45:32;5.10;99.90
11122;DHT22;5615;49.304;10.576;2023-04-15T00:47:59;5.20;99.90
11122;DHT22;5615;49.304;10.576;2023-04-15T00:50:25;5.10;99.90
11122;DHT22;5615;49.304;10.576;2023-04-15T00:52:52;5.10;99.90
11122;DHT22;5615;49.304;10.576;2023-04-15T00:55:18;5.00;99.90
11122;DHT22;5615;49.304;10.576;2023-04-15T00:57:47;5.00;99.90
11122;DHT22;5615;49.304;10.576;2023-04-15T01:00:14;4.90;99.90
11122;DHT22;5615;49.304;10.576;2023-04-15T01:02:41;4.90;99.90
11122;DHT22;5615;49.304;10.576;2023-04-15T01:05:07;5.00;99.90
11122;DHT22;5615;49.304;10.576;2023-04-15T01:07:34;5.00;99.90
11122;DHT22;5615;49.304;10.576;2023-04-15T01:10:02;5.00;99.90
11122;DHT22;5615;49.304;10.576;2023-04-15T01:12:31;4.90;99.90
11122;DHT22;5615;49.304;10.576;2023-04-15T01:15:00;4.90;99.90
11122;DHT22;5615;49.304;10.576;2023-04-15T01:17:27;4.80;99.90
11122;DHT22;5615;49.304;10.576;2023-04-15T01:19:55;4.80;99.90
11122;DHT22;5615;49.304;10.576;2023-04-15T01:22:22;4.90;99.90
11122;DHT22;5615;49.304;10.576;2023-04-15T01:24:54;4.80;99.90
11122;DHT22;5615;49.304;10.576;2023-04-15T01:27:24;4.90;99.90
11122;DHT22;5615;49.304;10.576;2023-04-15T01:29:51;4.90;99.90
11122;DHT22;5615;49.304;10.576;2023-04-15T01:32:18;4.80;99.90
11122;DHT22;5615;49.304;10.576;2023-04-15T01:34:45;4.80;99.90
11122;DHT22;5615;49.304;10.576;2023-04-15T01:37:11;4.80;99.90
11122;DHT22;5615;49.304;10.576;2023-04-15T01:39:38;4.90;99.90
11122;DHT22;5615;49.304;10.576;2023-04-15T01:42:05;4.80;99.90
11122;DHT22;5615;49.304;10.576;2023-04-15T01:44:33;4.80;99.90
11122;DHT22;5615;49.304;10.576;2023-04-15T01:46:59;4.70;99.90
11122;DHT22;5615;49.304;10.576;2023-04-15T01:49:26;4.70;99.90
11122;DHT22;5615;49.304;10.576;2023-04-15T01:51:53;4.70;99.90
11122;DHT22;5615;49.304;10.576;2023-04-15T01:54:20;4.70;99.90
11122;DHT22;5615;49.304;10.576;2023-04-15T01:56:46;4.70;99.90
11122;DHT22;5615;49.304;10.576;2023-04-15T01:59:13;4.70;99.90
11122;DHT22;5615;49.304;10.576;2023-04-15T02:01:41;4.70;99.90
11122;DHT22;5615;49.304;10.576;2023-04-15T02:04:08;4.60;99.90
11122;DHT22;5615;49.304;10.576;2023-04-15T02:06:40;4.60;99.90
11122;DHT22;5615;49.304;10.576;2023-04-15T02:09:07;4.60;99.90
11122;DHT22;5615;49.304;10.576;2023-04-15T02:11:34;4.60;99.90
11122;DHT22;5615;49.304;10.576;2023-04-15T02:14:01;4.60;99.90
11122;DHT22;5615;49.304;10.576;2023-04-15T02:16:28;4.60;99.90
11122;DHT22;5615;49.304;10.576;2023-04-15T02:18:56;4.60;99.90
11122;DHT22;5615;49.304;10.576;2023-04-15T02:21:23;4.50;99.90
11122;DHT22;5615;49.304;10.576;2023-04-15T02:23:51;4.50;99.90
11122;DHT22;5615;49.304;10.576;2023-04-15T02:26:19;4.50;99.90
11122;DHT22;5615;49.304;10.576;2023-04-15T02:28:46;4.50;99.90
11122;DHT22;5615;49.304;10.576;2023-04-15T02:31:13;4.60;99.90
11122;DHT22;5615;49.304;10.576;2023-04-15T02:33:40;4.60;99.90
11122;DHT22;5615;49.304;10.576;2023-04-15T02:36:08;4.60;99.90
11122;DHT22;5615;49.304;10.576;2023-04-15T02:38:36;4.70;99.90
11122;DHT22;5615;49.304;10.576;2023-04-15T02:41:05;4.60;99.90
11122;DHT22;5615;49.304;10.576;2023-04-15T02:43:31;4.50;99.90
11122;DHT22;5615;49.304;10.576;2023-04-15T02:45:58;4.60;99.90
11122;DHT22;5615;49.304;10.576;2023-04-15T02:48:24;4.50;99.90
11122;DHT22;5615;49.304;10.576;2023-04-15T02:50:51;4.50;99.90
11122;DHT22;5615;49.304;10.576;2023-04-15T02:53:19;4.50;99.90
11122;DHT22;5615;49.304;10.576;2023-04-15T02:55:45;4.60;99.90
11122;DHT22;5615;49.304;10.576;2023-04-15T02:58:12;4.60;99.90
11122;DHT22;5615;49.304;10.576;2023-04-15T03:00:39;4.60;99.90
11122;DHT22;5615;49.304;10.576;2023-04-15T03:03:05;4.50;99.90
11122;DHT22;5615;49.304;10.576;2023-04-15T03:05:32;4.50;99.90
11122;DHT22;5615;49.304;10.576;2023-04-15T03:07:58;4.50;99.90
11122;DHT22;5615;49.304;10.576;2023-04-15T03:10:27;4.50;99.90
11122;DHT22;5615;49.304;10.576;2023-04-15T03:12:54;4.40;99.90
11122;DHT22;5615;49.304;10.576;2023-04-15T03:15:20;4.40;99.90
11122;DHT22;5615;49.304;10.576;2023-04-15T03:17:47;4.40;99.90
11122;DHT22;5615;49.304;10.576;2023-04-15T03:20:14;4.40;99.90
11122;DHT22;5615;49.304;10.576;2023-04-15T03:22:41;4.30;99.90
11122;DHT22;5615;49.304;10.576;2023-04-15T03:25:08;4.30;99.90
11122;DHT22;5615;49.304;10.576;2023-04-15T03:27:37;4.40;99.90
11122;DHT22;5615;49.304;10.576;2023-04-15T03:30:04;4.50;99.90
11122;DHT22;5615;49.304;10.576;2023-04-15T03:32:32;4.50;99.90
11122;DHT22;5615;49.304;10.576;2023-04-15T03:34:58;4.50;99.90
11122;DHT22;5615;49.304;10.576;2023-04-15T03:37:25;4.50;99.90
11122;DHT22;5615;49.304;10.576;2023-04-15T03:39:51;4.60;99.90
11122;DHT22;5615;49.304;10.576;2023-04-15T03:42:18;4.50;99.90
11122;DHT22;5615;49.304;10.576;2023-04-15T03:44:46;4.50;99.90
11122;DHT22;5615;49.304;10.576;2023-04-15T03:47:13;4.40;99.90
11122;DHT22;5615;49.304;10.576;2023-04-15T03:49:40;4.40;99.90
11122;DHT22;5615;49.304;10.576;2023-04-15T03:52:06;4.40;99.90
11122;DHT22;5615;49.304;10.576;2023-04-15T03:54:33;4.40;99.90
11122;DHT22;5615;49.304;10.576;2023-04-15T03:56:59;4.30;99.90
11122;DHT22;5615;49.304;10.576;2023-04-15T03:59:26;4.30;99.90
11122;DHT22;5615;49.304;10.576;2023-04-15T04:01:54;4.40;99.90
11122;DHT22;5615;49.304;10.576;2023-04-15T04:04:21;4.30;99.90
11122;DHT22;5615;49.304;10.576;2023-04-15T04:06:48;4.30;99.90
11122;DHT22;5615;49.304;10.576;2023-04-15T04:09:14;4.30;99.90
11122;DHT22;5615;49.304;10.576;2023-04-15T04:11:41;4.20;99.90
11122;DHT22;5615;49.304;10.576;2023-04-15T04:14:08;4.20;99.90
11122;DHT22;5615;49.304;10.576;2023-04-15T04:16:35;4.10;99.90
11122;DHT22;5615;49.304;10.576;2023-04-15T04:19:03;4.10;99.90
11122;DHT22;5615;49.304;10.576;2023-04-15T04:21:29;4.10;99.90
11122;DHT22;5615;49.304;10.576;2023-04-15T04:23:58;4.10;99.90
11122;DHT22;5615;49.304;10.576;2023-04-15T04:26:25;4.10;99.90
11122;DHT22;5615;49.304;10.576;2023-04-15T04:28:51;4.10;99.90
11122;DHT22;5615;49.304;10.576;2023-04-15T04:31:18;4.10;99.90
11122;DHT22;5615;49.304;10.576;2023-04-15T04:33:45;4.10;99.90
11122;DHT22;5615;49.304;10.576;2023-04-15T04:36:13;4.10;99.90
11122;DHT22;5615;49.304;10.576;2023-04-15T04:38:40;4.10;99.90
11122;DHT22;5615;49.304;10.576;2023-04-15T04:41:06;4.20;99.90
11122;DHT22;5615;49.304;10.576;2023-04-15T04:43:33;4.20;99.90
11122;DHT22;5615;49.304;10.576;2023-04-15T04:45:59;4.30;99.90
11122;DHT22;5615;49.304;10.576;2023-04-15T04:48:26;4.30;99.90
11122;DHT22;5615;49.304;10.576;2023-04-15T04:50:53;4.30;99.90
11122;DHT22;5615;49.304;10.576;2023-04-15T04:53:21;4.40;99.90
11122;DHT22;5615;49.304;10.576;2023-04-15T04:55:48;4.40;99.90
11122;DHT22;5615;49.304;10.576;2023-04-15T04:58:14;4.50;99.90
11122;DHT22;5615;49.304;10.576;2023-04-15T05:00:41;4.60;99.90
11122;DHT22;5615;49.304;10.576;2023-04-15T05:03:07;4.70;99.90
11122;DHT22;5615;49.304;10.576;2023-04-15T05:05:34;4.70;99.90
11122;DHT22;5615;49.304;10.576;2023-04-15T05:08:01;4.80;99.90
11122;DHT22;5615;49.304;10.576;2023-04-15T05:10:29;4.80;99.90
11122;DHT22;5615;49.304;10.576;2023-04-15T05:12:55;4.80;99.90
11122;DHT22;5615;49.304;10.576;2023-04-15T05:15:22;4.90;99.90
11122;DHT22;5615;49.304;10.576;2023-04-15T05:17:49;4.90;99.90
11122;DHT22;5615;49.304;10.576;2023-04-15T05:20:15;5.00;99.90
11122;DHT22;5615;49.304;10.576;2023-04-15T05:22:42;5.00;99.90
11122;DHT22;5615;49.304;10.576;2023-04-15T05:25:09;5.10;99.90
11122;DHT22;5615;49.304;10.576;2023-04-15T05:27:37;5.10;99.90
11122;DHT22;5615;49.304;10.576;2023-04-15T05:30:04;5.10;99.90
11122;DHT22;5615;49.304;10.576;2023-04-15T05:32:31;5.20;99.90
11122;DHT22;5615;49.304;10.576;2023-04-15T05:34:58;5.20;99.90
11122;DHT22;5615;49.304;10.576;2023-04-15T05:37:24;5.30;99.90
11122;DHT22;5615;49.304;10.576;2023-04-15T05:39:51;5.30;99.90
11122;DHT22;5615;49.304;10.576;2023-04-15T05:42:18;5.30;99.90
11122;DHT22;5615;49.304;10.576;2023-04-15T05:44:46;5.40;99.90
11122;DHT22;5615;49.304;10.576;2023-04-15T05:47:12;5.40;99.90
11122;DHT22;5615;49.304;10.576;2023-04-15T05:49:39;5.50;99.90
11122;DHT22;5615;49.304;10.576;2023-04-15T05:52:05;5.50;99.90
11122;DHT22;5615;49.304;10.576;2023-04-15T05:54:32;5.60;99.90
11122;DHT22;5615;49.304;10.576;2023-04-15T05:56:59;5.70;99.90
11122;DHT22;5615;49.304;10.576;2023-04-15T05:59:26;5.80;99.90
11122;DHT22;5615;49.304;10.576;2023-04-15T06:01:54;5.80;99.90
11122;DHT22;5615;49.304;10.576;2023-04-15T06:04:20;5.80;99.90
11122;DHT22;5615;49.304;10.576;2023-04-15T06:06:47;5.90;99.90
11122;DHT22;5615;49.304;10.576;2023-04-15T06:09:13;6.00;99.90
11122;DHT22;5615;49.304;10.576;2023-04-15T06:11:40;6.00;99.90
11122;DHT22;5615;49.304;10.576;2023-04-15T06:14:07;6.00;99.90
11122;DHT22;5615;49.304;10.576;2023-04-15T06:16:33;6.10;99.90
11122;DHT22;5615;49.304;10.576;2023-04-15T06:19:02;6.10;99.90
11122;DHT22;5615;49.304;10.576;2023-04-15T06:21:28;6.10;99.90
11122;DHT22;5615;49.304;10.576;2023-04-15T06:23:55;6.10;99.90
11122;DHT22;5615;49.304;10.576;2023-04-15T06:26:22;6.10;99.90
11122;DHT22;5615;49.304;10.576;2023-04-15T06:28:49;6.30;99.90
11122;DHT22;5615;49.304;10.576;2023-04-15T06:31:15;6.30;99.90
11122;DHT22;5615;49.304;10.576;2023-04-15T06:33:42;6.30;99.90
11122;DHT22;5615;49.304;10.576;2023-04-15T06:36:10;6.50;99.90
11122;DHT22;5615;49.304;10.576;2023-04-15T06:38:36;6.50;99.90
11122;DHT22;5615;49.304;10.576;2023-04-15T06:41:03;6.70;99.90
11122;DHT22;5615;49.304;10.576;2023-04-15T06:43:30;6.90;99.90
11122;DHT22;5615;49.304;10.576;2023-04-15T06:45:57;7.00;99.90
11122;DHT22;5615;49.304;10.576;2023-04-15T06:48:23;7.00;99.90
11122;DHT22;5615;49.304;10.576;2023-04-15T06:50:50;7.30;99.90
11122;DHT22;5615;49.304;10.576;2023-04-15T06:53:19;7.60;99.90
11122;DHT22;5615;49.304;10.576;2023-04-15T06:55:45;7.90;99.90
11122;DHT22;5615;49.304;10.576;2023-04-15T06:58:12;8.20;99.90
11122;DHT22;5615;49.304;10.576;2023-04-15T07:00:39;8.10;99.90
11122;DHT22;5615;49.304;10.576;2023-04-15T07:03:05;8.20;99.90
11122;DHT22;5615;49.304;10.576;2023-04-15T07:05:35;8.20;99.90
11122;DHT22;5615;49.304;10.576;2023-04-15T07:08:03;8.30;99.90
11122;DHT22;5615;49.304;10.576;2023-04-15T07:10:31;8.40;99.90
11122;DHT22;5615;49.304;10.576;2023-04-15T07:12:57;8.40;99.90
11122;DHT22;5615;49.304;10.576;2023-04-15T07:15:24;8.60;99.90
11122;DHT22;5615;49.304;10.576;2023-04-15T07:17:50;8.70;99.90
11122;DHT22;5615;49.304;10.576;2023-04-15T07:20:17;8.80;99.90
11122;DHT22;5615;49.304;10.576;2023-04-15T07:22:44;8.80;99.90
11122;DHT22;5615;49.304;10.576;2023-04-15T07:25:11;9.20;99.90
11122;DHT22;5615;49.304;10.576;2023-04-15T07:27:38;9.20;99.90
11122;DHT22;5615;49.304;10.576;2023-04-15T07:30:06;9.20;99.90
11122;DHT22;5615;49.304;10.576;2023-04-15T07:32:33;9.30;99.90
11122;DHT22;5615;49.304;10.576;2023-04-15T07:35:00;9.40;99.90
11122;DHT22;5615;49.304;10.576;2023-04-15T07:37:28;9.60;99.90
11122;DHT22;5615;49.304;10.576;2023-04-15T07:39:54;9.60;99.90
11122;DHT22;5615;49.304;10.576;2023-04-15T07:42:21;9.60;99.90
11122;DHT22;5615;49.304;10.576;2023-04-15T07:44:50;9.50;99.90
11122;DHT22;5615;49.304;10.576;2023-04-15T07:47:17;9.30;99.90
11122;DHT22;5615;49.304;10.576;2023-04-15T07:49:43;9.30;99.90
11122;DHT22;5615;49.304;10.576;2023-04-15T07:52:10;9.20;99.90
11122;DHT22;5615;49.304;10.576;2023-04-15T07:54:37;9.10;99.90
11122;DHT22;5615;49.304;10.576;2023-04-15T07:57:04;9.30;99.90
11122;DHT22;5615;49.304;10.576;2023-04-15T07:59:30;9.20;99.90
11122;DHT22;5615;49.304;10.576;2023-04-15T08:01:59;9.30;99.90
11122;DHT22;5615;49.304;10.576;2023-04-15T08:04:25;9.30;99.90
11122;DHT22;5615;49.304;10.576;2023-04-15T08:06:52;9.30;99.90
11122;DHT22;5615;49.304;10.576;2023-04-15T08:09:19;9.60;99.90
11122;DHT22;5615;49.304;10.576;2023-04-15T08:11:47;9.50;99.90
11122;DHT22;5615;49.304;10.576;2023-04-15T08:14:14;9.70;99.90
11122;DHT22;5615;49.304;10.576;2023-04-15T08:16:41;9.90;99.90
11122;DHT22;5615;49.304;10.576;2023-04-15T08:19:09;10.10;99.90
11122;DHT22;5615;49.304;10.576;2023-04-15T08:21:35;10.20;99.90
11122;DHT22;5615;49.304;10.576;2023-04-15T08:24:02;10.30;99.90
11122;DHT22;5615;49.304;10.576;2023-04-15T08:26:29;10.60;99.90
11122;DHT22;5615;49.304;10.576;2023-04-15T08:28:55;10.30;99.90
11122;DHT22;5615;49.304;10.576;2023-04-15T08:31:22;10.10;99.90
11122;DHT22;5615;49.304;10.576;2023-04-15T08:33:49;9.80;99.90
11122;DHT22;5615;49.304;10.576;2023-04-15T08:36:19;10.10;99.90
11122;DHT22;5615;49.304;10.576;2023-04-15T08:38:46;10.00;99.90
11122;DHT22;5615;49.304;10.576;2023-04-15T08:41:19;10.30;99.90
11122;DHT22;5615;49.304;10.576;2023-04-15T08:43:51;10.40;99.90
11122;DHT22;5615;49.304;10.576;2023-04-15T08:46:19;10.40;99.90
11122;DHT22;5615;49.304;10.576;2023-04-15T08:48:47;10.60;99.90
11122;DHT22;5615;49.304;10.576;2023-04-15T08:51:14;10.70;99.90
11122;DHT22;5615;49.304;10.576;2023-04-15T08:53:43;10.40;99.90
11122;DHT22;5615;49.304;10.576;2023-04-15T08:56:13;10.60;99.90
11122;DHT22;5615;49.304;10.576;2023-04-15T08:58:40;10.40;99.90
11122;DHT22;5615;49.304;10.576;2023-04-15T09:01:07;10.20;99.90
11122;DHT22;5615;49.304;10.576;2023-04-15T09:03:34;10.20;99.90
11122;DHT22;5615;49.304;10.576;2023-04-15T09:06:03;10.40;99.90
11122;DHT22;5615;49.304;10.576;2023-04-15T09:08:30;10.80;99.90
11122;DHT22;5615;49.304;10.576;2023-04-15T09:10:58;10.60;99.90
11122;DHT22;5615;49.304;10.576;2023-04-15T09:13:25;10.90;99.90
11122;DHT22;5615;49.304;10.576;2023-04-15T09:15:52;11.10;99.90
11122;DHT22;5615;49.304;10.576;2023-04-15T09:18:29;11.00;99.90
11122;DHT22;5615;49.304;10.576;2023-04-15T09:21:02;11.00;99.90
11122;DHT22;5615;49.304;10.576;2023-04-15T09:23:31;11.10;99.90
11122;DHT22;5615;49.304;10.576;2023-04-15T09:25:59;11.30;99.90
11122;DHT22;5615;49.304;10.576;2023-04-15T09:28:26;11.60;99.90
11122;DHT22;5615;49.304;10.576;2023-04-15T09:30:55;11.10;99.90
11122;DHT22;5615;49.304;10.576;2023-04-15T09:33:22;10.50;99.90
11122;DHT22;5615;49.304;10.576;2023-04-15T09:35:57;10.40;99.90
11122;DHT22;5615;49.304;10.576;2023-04-15T09:38:24;10.70;99.90
11122;DHT22;5615;49.304;10.576;2023-04-15T09:40:51;10.90;99.90
11122;DHT22;5615;49.304;10.576;2023-04-15T09:43:19;10.70;99.90
11122;DHT22;5615;49.304;10.576;2023-04-15T09:45:47;10.70;99.90
11122;DHT22;5615;49.304;10.576;2023-04-15T09:48:16;10.80;99.90
11122;DHT22;5615;49.304;10.576;2023-04-15T09:50:43;11.40;99.90
11122;DHT22;5615;49.304;10.576;2023-04-15T09:53:10;11.80;99.90
11122;DHT22;5615;49.304;10.576;2023-04-15T09:55:37;11.60;99.90
11122;DHT22;5615;49.304;10.576;2023-04-15T09:58:07;11.50;99.90
11122;DHT22;5615;49.304;10.576;2023-04-15T10:00:36;11.10;99.90
11122;DHT22;5615;49.304;10.576;2023-04-15T10:03:04;11.40;99.90
11122;DHT22;5615;49.304;10.576;2023-04-15T10:05:31;11.40;99.90
11122;DHT22;5615;49.304;10.576;2023-04-15T10:07:59;11.00;99.90
11122;DHT22;5615;49.304;10.576;2023-04-15T10:10:26;11.20;99.90
11122;DHT22;5615;49.304;10.576;2023-04-15T10:12:54;10.40;99.90
11122;DHT22;5615;49.304;10.576;2023-04-15T10:15:22;10.20;99.90
11122;DHT22;5615;49.304;10.576;2023-04-15T10:17:52;10.10;99.90
11122;DHT22;5615;49.304;10.576;2023-04-15T10:20:20;9.90;99.90
11122;DHT22;5615;49.304;10.576;2023-04-15T10:22:47;10.10;99.90
11122;DHT22;5615;49.304;10.576;2023-04-15T10:25:15;10.00;99.90
11122;DHT22;5615;49.304;10.576;2023-04-15T10:27:41;9.90;99.90
11122;DHT22;5615;49.304;10.576;2023-04-15T10:30:08;9.90;99.90
11122;DHT22;5615;49.304;10.576;2023-04-15T10:32:36;9.70;99.90
11122;DHT22;5615;49.304;10.576;2023-04-15T10:35:06;9.50;99.90
11122;DHT22;5615;49.304;10.576;2023-04-15T10:37:35;9.50;99.90
11122;DHT22;5615;49.304;10.576;2023-04-15T10:40:24;9.30;99.90
11122;DHT22;5615;49.304;10.576;2023-04-15T10:42:52;9.30;99.90
11122;DHT22;5615;49.304;10.576;2023-04-15T10:45:19;9.40;99.90
11122;DHT22;5615;49.304;10.576;2023-04-15T10:47:45;9.30;99.90
11122;DHT22;5615;49.304;10.576;2023-04-15T10:50:13;9.10;99.90
11122;DHT22;5615;49.304;10.576;2023-04-15T10:52:40;8.90;99.90
11122;DHT22;5615;49.304;10.576;2023-04-15T10:55:13;8.80;99.90
11122;DHT22;5615;49.304;10.576;2023-04-15T10:57:41;8.60;99.90
11122;DHT22;5615;49.304;10.576;2023-04-15T11:00:12;8.50;99.90
11122;DHT22;5615;49.304;10.576;2023-04-15T11:02:44;8.40;99.90
11122;DHT22;5615;49.304;10.576;2023-04-15T11:05:13;8.50;99.90
11122;DHT22;5615;49.304;10.576;2023-04-15T11:07:47;8.60;99.90
11122;DHT22;5615;49.304;10.576;2023-04-15T11:13:22;8.40;99.90
11122;DHT22;5615;49.304;10.576;2023-04-15T11:15:50;8.40;99.90
11122;DHT22;5615;49.304;10.576;2023-04-15T11:18:18;8.00;99.90
11122;DHT22;5615;49.304;10.576;2023-04-15T11:20:49;8.20;99.90
11122;DHT22;5615;49.304;10.576;2023-04-15T11:23:17;8.10;99.90
11122;DHT22;5615;49.304;10.576;2023-04-15T11:25:44;8.20;99.90
11122;DHT22;5615;49.304;10.576;2023-04-15T11:28:12;8.40;99.90
11122;DHT22;5615;49.304;10.576;2023-04-15T11:30:41;8.00;99.90
11122;DHT22;5615;49.304;10.576;2023-04-15T11:33:09;7.90;99.90
11122;DHT22;5615;49.304;10.576;2023-04-15T11:35:36;8.00;99.90
11122;DHT22;5615;49.304;10.576;2023-04-15T11:38:08;8.10;99.90
11122;DHT22;5615;49.304;10.576;2023-04-15T11:40:35;8.10;99.90
11122;DHT22;5615;49.304;10.576;2023-04-15T11:43:04;8.10;99.90
11122;DHT22;5615;49.304;10.576;2023-04-15T11:45:31;8.20;99.90
11122;DHT22;5615;49.304;10.576;2023-04-15T11:48:04;8.20;99.90
11122;DHT22;5615;49.304;10.576;2023-04-15T11:50:31;8.30;99.90
11122;DHT22;5615;49.304;10.576;2023-04-15T11:52:59;8.40;99.90
11122;DHT22;5615;49.304;10.576;2023-04-15T11:55:28;8.30;99.90
11122;DHT22;5615;49.304;10.576;2023-04-15T11:58:07;8.40;99.90
11122;DHT22;5615;49.304;10.576;2023-04-15T12:00:34;8.30;99.90
11122;DHT22;5615;49.304;10.576;2023-04-15T12:03:11;8.40;99.90
11122;DHT22;5615;49.304;10.576;2023-04-15T12:06:06;8.10;99.90
11122;DHT22;5615;49.304;10.576;2023-04-15T12:09:09;8.10;99.90
11122;DHT22;5615;49.304;10.576;2023-04-15T12:11:43;8.00;99.90
11122;DHT22;5615;49.304;10.576;2023-04-15T12:14:12;8.10;99.90
11122;DHT22;5615;49.304;10.576;2023-04-15T12:16:43;8.20;99.90
11122;DHT22;5615;49.304;10.576;2023-04-15T12:19:11;8.20;99.90
11122;DHT22;5615;49.304;10.576;2023-04-15T12:21:39;8.10;99.90
11122;DHT22;5615;49.304;10.576;2023-04-15T12:24:08;8.20;99.90
11122;DHT22;5615;49.304;10.576;2023-04-15T12:26:37;8.10;99.90
11122;DHT22;5615;49.304;10.576;2023-04-15T12:29:10;8.00;99.90
11122;DHT22;5615;49.304;10.576;2023-04-15T12:31:46;7.90;99.90
11122;DHT22;5615;49.304;10.576;2023-04-15T12:34:13;7.90;99.90
11122;DHT22;5615;49.304;10.576;2023-04-15T12:36:41;7.80;99.90
11122;DHT22;5615;49.304;10.576;2023-04-15T12:39:08;7.70;99.90
11122;DHT22;5615;49.304;10.576;2023-04-15T12:41:35;7.70;99.90
11122;DHT22;5615;49.304;10.576;2023-04-15T12:44:02;7.70;99.90
11122;DHT22;5615;49.304;10.576;2023-04-15T12:46:31;7.70;99.90
11122;DHT22;5615;49.304;10.576;2023-04-15T12:48:57;7.60;99.90
11122;DHT22;5615;49.304;10.576;2023-04-15T12:51:24;7.50;99.90
11122;DHT22;5615;49.304;10.576;2023-04-15T12:53:51;7.70;99.90
11122;DHT22;5615;49.304;10.576;2023-04-15T12:56:18;7.60;99.90
11122;DHT22;5615;49.304;10.576;2023-04-15T12:58:45;7.60;99.90
11122;DHT22;5615;49.304;10.576;2023-04-15T13:01:11;7.50;99.90
11122;DHT22;5615;49.304;10.576;2023-04-15T13:03:39;7.50;99.90
11122;DHT22;5615;49.304;10.576;2023-04-15T13:06:06;7.40;99.90
11122;DHT22;5615;49.304;10.576;2023-04-15T13:08:32;7.50;99.90
11122;DHT22;5615;49.304;10.576;2023-04-15T13:10:59;7.40;99.90
11122;DHT22;5615;49.304;10.576;2023-04-15T13:13:26;7.50;99.90
11122;DHT22;5615;49.304;10.576;2023-04-15T13:15:53;7.60;99.90
11122;DHT22;5615;49.304;10.576;2023-04-15T13:18:19;7.70;99.90
11122;DHT22;5615;49.304;10.576;2023-04-15T13:20:50;7.80;99.90
11122;DHT22;5615;49.304;10.576;2023-04-15T13:23:16;7.90;99.90
11122;DHT22;5615;49.304;10.576;2023-04-15T13:25:43;7.80;99.90
11122;DHT22;5615;49.304;10.576;2023-04-15T13:28:10;7.70;99.90
11122;DHT22;5615;49.304;10.576;2023-04-15T13:30:38;7.90;99.90
11122;DHT22;5615;49.304;10.576;2023-04-15T13:33:04;7.90;99.90
11122;DHT22;5615;49.304;10.576;2023-04-15T13:35:32;7.90;99.90
11122;DHT22;5615;49.304;10.576;2023-04-15T13:38:00;7.70;99.90
11122;DHT22;5615;49.304;10.576;2023-04-15T13:40:27;7.70;99.90
11122;DHT22;5615;49.304;10.576;2023-04-15T13:42:53;7.70;99.90
11122;DHT22;5615;49.304;10.576;2023-04-15T13:45:20;7.60;99.90
11122;DHT22;5615;49.304;10.576;2023-04-15T13:47:47;7.60;99.90
11122;DHT22;5615;49.304;10.576;2023-04-15T13:50:13;7.50;99.90
11122;DHT22;5615;49.304;10.576;2023-04-15T13:52:40;7.40;99.90
11122;DHT22;5615;49.304;10.576;2023-04-15T13:55:09;7.40;99.90
11122;DHT22;5615;49.304;10.576;2023-04-15T13:57:35;7.40;99.90
11122;DHT22;5615;49.304;10.576;2023-04-15T14:00:03;7.50;99.90
11122;DHT22;5615;49.304;10.576;2023-04-15T14:02:30;7.30;99.90
11122;DHT22;5615;49.304;10.576;2023-04-15T14:04:57;7.30;99.90
11122;DHT22;5615;49.304;10.576;2023-04-15T14:07:23;7.30;99.90
11122;DHT22;5615;49.304;10.576;2023-04-15T14:09:50;7.20;99.90
11122;DHT22;5615;49.304;10.576;2023-04-15T14:12:18;7.30;99.90
11122;DHT22;5615;49.304;10.576;2023-04-15T14:14:44;7.30;99.90
11122;DHT22;5615;49.304;10.576;2023-04-15T14:17:11;7.20;99.90
11122;DHT22;5615;49.304;10.576;2023-04-15T14:19:38;7.10;99.90
11122;DHT22;5615;49.304;10.576;2023-04-15T14:22:04;7.10;99.90
11122;DHT22;5615;49.304;10.576;2023-04-15T14:24:31;7.10;99.90
11122;DHT22;5615;49.304;10.576;2023-04-15T14:26:58;7.10;99.90
11122;DHT22;5615;49.304;10.576;2023-04-15T14:29:26;7.10;99.90
11122;DHT22;5615;49.304;10.576;2023-04-15T14:31:52;7.10;99.90
11122;DHT22;5615;49.304;10.576;2023-04-15T14:34:22;7.20;99.90
11122;DHT22;5615;49.304;10.576;2023-04-15T14:36:50;7.30;99.90
11122;DHT22;5615;49.304;10.576;2023-04-15T14:39:16;7.30;99.90
11122;DHT22;5615;49.304;10.576;2023-04-15T14:41:43;7.40;99.90
11122;DHT22;5615;49.304;10.576;2023-04-15T14:44:10;7.40;99.90
11122;DHT22;5615;49.304;10.576;2023-04-15T14:46:38;7.40;99.90
11122;DHT22;5615;49.304;10.576;2023-04-15T14:49:05;7.20;99.90
11122;DHT22;5615;49.304;10.576;2023-04-15T14:51:31;7.20;99.90
11122;DHT22;5615;49.304;10.576;2023-04-15T14:53:58;7.00;99.90
11122;DHT22;5615;49.304;10.576;2023-04-15T14:56:25;6.90;99.90
11122;DHT22;5615;49.304;10.576;2023-04-15T14:58:52;6.80;99.90
11122;DHT22;5615;49.304;10.576;2023-04-15T15:01:18;6.80;99.90
11122;DHT22;5615;49.304;10.576;2023-04-15T15:03:49;6.70;99.90
11122;DHT22;5615;49.304;10.576;2023-04-15T15:06:15;6.60;99.90
11122;DHT22;5615;49.304;10.576;2023-04-15T15:08:42;6.70;99.90
11122;DHT22;5615;49.304;10.576;2023-04-15T15:11:09;6.70;99.90
11122;DHT22;5615;49.304;10.576;2023-04-15T15:13:35;6.70;99.90
11122;DHT22;5615;49.304;10.576;2023-04-15T15:16:02;6.80;99.90
11122;DHT22;5615;49.304;10.576;2023-04-15T15:18:29;6.80;99.90
11122;DHT22;5615;49.304;10.576;2023-04-15T15:20:57;6.80;99.90
11122;DHT22;5615;49.304;10.576;2023-04-15T15:23:23;6.80;99.90
11122;DHT22;5615;49.304;10.576;2023-04-15T15:25:50;6.80;99.90
11122;DHT22;5615;49.304;10.576;2023-04-15T15:28:16;6.80;99.90
11122;DHT22;5615;49.304;10.576;2023-04-15T15:30:43;6.90;99.90
11122;DHT22;5615;49.304;10.576;2023-04-15T15:33:10;6.80;99.90
11122;DHT22;5615;49.304;10.576;2023-04-15T15:35:37;6.80;99.90
11122;DHT22;5615;49.304;10.576;2023-04-15T15:38:05;6.80;99.90
11122;DHT22;5615;49.304;10.576;2023-04-15T15:40:32;6.90;99.90
11122;DHT22;5615;49.304;10.576;2023-04-15T15:42:59;6.90;99.90
11122;DHT22;5615;49.304;10.576;2023-04-15T15:45:26;6.90;99.90
11122;DHT22;5615;49.304;10.576;2023-04-15T15:47:52;6.90;99.90
11122;DHT22;5615;49.304;10.576;2023-04-15T15:50:21;6.90;99.90